createdAt,value
2023-02-19T00:02:58.810Z,-15.14
2023-02-19T00:06:05.453Z,-14.60
2023-02-19T00:09:15.455Z,-14.30
2023-02-19T00:12:20.261Z,-14.34
2023-02-19T00:15:24.692Z,-14.36
2023-02-19T00:18:29.145Z,-14.75
2023-02-19T00:21:34.377Z,-14.30
2023-02-19T00:24:38.262Z,-13.50
2023-02-19T00:27:42.674Z,-12.86
2023-02-19T00:30:46.911Z,-12.57
2023-02-19T00:33:54.970Z,-11.64
2023-02-19T00:36:59.655Z,-11.56
2023-02-19T00:40:04.006Z,-10.88
2023-02-19T00:43:08.244Z,-11.27
2023-02-19T00:46:12.628Z,-11.17
2023-02-19T00:49:23.345Z,-11.08
2023-02-19T00:52:27.658Z,-10.06
2023-02-19T00:55:31.647Z,-9.27
2023-02-19T00:58:37.331Z,-9.83
2023-02-19T01:01:48.065Z,-9.86
2023-02-19T01:04:52.691Z,-9.94
2023-02-19T01:07:57.083Z,-9.81
2023-02-19T01:11:01.868Z,-9.99
2023-02-19T01:14:06.248Z,-9.91
2023-02-19T01:17:11.337Z,-9.36
2023-02-19T01:20:15.362Z,-9.75
2023-02-19T01:23:19.519Z,-8.96
2023-02-19T01:26:26.776Z,-8.63
2023-02-19T01:29:31.426Z,-8.47
2023-02-19T01:32:35.702Z,-9.16
2023-02-19T01:35:40.872Z,-8.87
2023-02-19T01:38:47.808Z,-9.05
2023-02-19T01:41:52.157Z,-8.80
2023-02-19T01:45:27.879Z,-9.34
2023-02-19T01:48:39.317Z,-8.89
2023-02-19T01:51:49.142Z,-8.90
2023-02-19T01:54:57.879Z,-9.18
2023-02-19T01:58:04.481Z,-9.36
2023-02-19T02:01:10.845Z,-9.95
2023-02-19T02:04:17.107Z,-9.78
2023-02-19T02:07:39.600Z,-9.15
2023-02-19T02:10:44.824Z,-8.06
2023-02-19T02:13:51.145Z,-8.28
2023-02-19T02:17:18.322Z,-7.82
2023-02-19T02:20:59.082Z,-7.79
2023-02-19T02:24:24.984Z,-6.80
2023-02-19T02:27:55.211Z,-6.29
2023-02-19T02:31:09.925Z,-6.56
2023-02-19T02:34:23.392Z,-7.11
2023-02-19T02:37:33.701Z,-6.70
2023-02-19T02:40:40.281Z,-6.86
2023-02-19T02:43:44.468Z,-6.34
2023-02-19T02:46:48.681Z,-6.02
2023-02-19T02:50:06.012Z,-6.26
2023-02-19T02:53:39.954Z,-6.14
2023-02-19T02:56:47.632Z,-6.20
2023-02-19T02:59:51.931Z,-6.26
2023-02-19T03:02:58.632Z,-6.02
2023-02-19T03:06:10.426Z,-5.82
2023-02-19T03:09:31.062Z,-6.19
2023-02-19T03:12:58.498Z,-5.64
2023-02-19T03:16:31.988Z,-5.15
2023-02-19T03:19:50.311Z,-6.37
2023-02-19T03:22:57.872Z,-6.19
2023-02-19T03:26:06.238Z,-5.72
2023-02-19T03:29:40.551Z,-4.83
2023-02-19T03:33:14.683Z,-4.88
2023-02-19T03:36:26.526Z,-5.60
2023-02-19T03:39:33.380Z,-6.08
2023-02-19T03:42:45.405Z,-6.18
2023-02-19T03:46:24.112Z,-5.79
2023-02-19T03:49:49.247Z,-5.18
2023-02-19T03:53:17.892Z,-5.89
2023-02-19T03:56:53.535Z,-5.44
2023-02-19T04:00:11.701Z,-5.64
2023-02-19T04:03:46.804Z,-5.45
2023-02-19T04:06:59.951Z,-5.42
2023-02-19T04:10:11.037Z,-4.95
2023-02-19T04:13:27.606Z,-5.51
2023-02-19T04:16:33.887Z,-5.77
2023-02-19T04:19:41.658Z,-5.35
2023-02-19T04:22:50.008Z,-5.32
2023-02-19T04:26:01.012Z,-5.32
2023-02-19T04:29:05.996Z,-5.27
2023-02-19T04:32:13.030Z,-4.89
2023-02-19T04:35:17.636Z,-5.75
2023-02-19T04:38:21.698Z,-6.01
2023-02-19T04:41:25.697Z,-5.61
2023-02-19T04:44:30.238Z,-5.24
2023-02-19T04:47:34.765Z,-5.31
2023-02-19T04:50:42.266Z,-5.19
2023-02-19T04:53:46.186Z,-4.39
2023-02-19T04:56:51.572Z,-4.31
2023-02-19T04:59:55.834Z,-4.96
2023-02-19T05:03:00.207Z,-4.83
2023-02-19T05:06:09.842Z,-5.00
2023-02-19T05:09:14.350Z,-4.45
2023-02-19T05:12:18.883Z,-4.27
2023-02-19T05:15:23.114Z,-4.29
2023-02-19T05:18:28.516Z,-4.61
2023-02-19T05:21:33.019Z,-4.34
2023-02-19T05:24:37.634Z,-4.10
2023-02-19T05:27:42.087Z,-4.58
2023-02-19T05:30:52.023Z,-4.70
2023-02-19T05:33:57.350Z,-4.58
2023-02-19T05:37:01.561Z,-5.13
2023-02-19T05:40:06.483Z,-4.91
2023-02-19T05:43:10.916Z,-5.58
2023-02-19T05:46:17.846Z,-5.23
2023-02-19T05:49:23.215Z,-5.27
2023-02-19T05:52:28.000Z,-5.23
2023-02-19T05:55:36.358Z,-5.73
2023-02-19T05:58:40.542Z,-6.31
2023-02-19T06:01:45.629Z,-6.62
2023-02-19T06:04:53.106Z,-6.88
2023-02-19T06:07:57.427Z,-7.15
2023-02-19T06:11:01.486Z,-7.32
2023-02-19T06:14:06.910Z,-6.97
2023-02-19T06:17:12.384Z,-7.17
2023-02-19T06:20:17.256Z,-7.13
2023-02-19T06:23:21.538Z,-6.78
2023-02-19T06:26:26.805Z,-6.69
2023-02-19T06:29:33.344Z,-6.52
2023-02-19T06:32:37.715Z,-6.90
2023-02-19T06:35:43.317Z,-6.81
2023-02-19T06:38:47.827Z,-6.94
2023-02-19T06:41:52.203Z,-6.73
2023-02-19T06:44:56.183Z,-6.91
2023-02-19T06:48:00.717Z,-7.19
2023-02-19T06:51:05.270Z,-6.82
2023-02-19T06:54:09.897Z,-8.22
2023-02-19T06:57:14.342Z,-6.99
2023-02-19T07:00:20.966Z,-7.07
2023-02-19T07:03:27.032Z,-7.12
2023-02-19T07:06:32.043Z,-6.85
2023-02-19T07:09:36.423Z,-7.03
2023-02-19T07:12:40.873Z,-7.48
2023-02-19T07:15:45.371Z,-7.04
2023-02-19T07:18:50.471Z,-7.33
2023-02-19T07:21:54.857Z,-7.96
2023-02-19T07:24:59.650Z,-8.16
2023-02-19T07:28:04.248Z,-7.98
2023-02-19T07:31:08.635Z,-8.18
2023-02-19T07:34:13.208Z,-8.37
2023-02-19T07:37:17.681Z,-8.52
2023-02-19T07:40:22.003Z,-8.30
2023-02-19T07:43:28.002Z,-8.63
2023-02-19T07:46:33.041Z,-8.18
2023-02-19T07:49:37.669Z,-8.71
2023-02-19T07:52:42.260Z,-8.07
2023-02-19T07:55:46.828Z,-8.10
2023-02-19T07:58:51.270Z,-7.93
2023-02-19T08:02:15.005Z,-8.59
2023-02-19T08:05:19.350Z,-8.90
2023-02-19T08:08:23.832Z,-8.32
2023-02-19T08:11:46.696Z,-8.58
2023-02-19T08:14:50.778Z,-8.58
2023-02-19T08:17:54.935Z,-9.02
2023-02-19T08:21:00.437Z,-8.80
2023-02-19T08:24:05.218Z,-8.99
2023-02-19T08:27:09.897Z,-9.30
2023-02-19T08:30:14.715Z,-9.24
2023-02-19T08:33:26.769Z,-9.49
2023-02-19T08:36:31.554Z,-9.96
2023-02-19T08:39:36.251Z,-9.69
2023-02-19T08:42:40.882Z,-9.78
2023-02-19T08:45:48.177Z,-9.83
2023-02-19T08:48:53.252Z,-10.12
2023-02-19T08:51:57.713Z,-10.38
2023-02-19T08:55:02.250Z,-10.27
2023-02-19T08:58:07.402Z,-10.27
2023-02-19T09:01:14.483Z,-10.14
2023-02-19T09:04:19.505Z,-10.33
2023-02-19T09:07:24.034Z,-10.33
2023-02-19T09:10:28.357Z,-10.43
2023-02-19T09:13:32.774Z,-10.32
2023-02-19T09:16:38.353Z,-10.11
2023-02-19T09:19:42.802Z,-10.11
2023-02-19T09:22:47.514Z,-10.25
2023-02-19T09:26:00.616Z,-10.36
2023-02-19T09:29:05.080Z,-10.44
2023-02-19T09:32:09.741Z,-10.65
2023-02-19T09:35:15.276Z,-10.41
2023-02-19T09:38:19.696Z,-10.58
2023-02-19T09:41:35.137Z,-10.53
2023-02-19T09:44:45.341Z,-10.58
2023-02-19T09:47:50.785Z,-10.44
2023-02-19T09:50:56.223Z,-10.51
2023-02-19T09:53:59.988Z,-10.58
2023-02-19T09:57:05.624Z,-10.62
2023-02-19T10:00:12.988Z,-10.70
2023-02-19T10:03:29.417Z,-10.73
2023-02-19T10:06:37.064Z,-10.80
2023-02-19T10:09:41.917Z,-10.93
2023-02-19T10:12:54.486Z,-10.75
2023-02-19T10:16:02.467Z,-10.72
2023-02-19T10:19:11.450Z,-10.71
2023-02-19T10:22:17.720Z,-10.80
2023-02-19T10:25:22.663Z,-10.82
2023-02-19T10:28:31.098Z,-10.88
2023-02-19T10:31:35.850Z,-10.83
2023-02-19T10:34:40.620Z,-11.08
2023-02-19T10:37:50.773Z,-10.73
2023-02-19T10:41:06.272Z,-10.75
2023-02-19T10:44:11.634Z,-10.77
2023-02-19T10:47:23.308Z,-10.84
2023-02-19T10:50:33.960Z,-11.06
2023-02-19T10:53:50.040Z,-11.03
2023-02-19T10:56:55.335Z,-11.22
2023-02-19T11:00:23.899Z,-11.06
2023-02-19T11:03:28.240Z,-11.08
2023-02-19T11:06:34.882Z,-11.24
2023-02-19T11:09:46.302Z,-11.30
2023-02-19T11:12:53.236Z,-11.30
2023-02-19T11:15:58.430Z,-11.39
2023-02-19T11:19:02.837Z,-11.43
2023-02-19T11:22:32.775Z,-11.45
2023-02-19T11:25:37.212Z,-11.67
2023-02-19T11:28:42.035Z,-11.82
2023-02-19T11:31:47.319Z,-11.92
2023-02-19T11:34:54.265Z,-12.05
2023-02-19T11:38:03.499Z,-12.01
2023-02-19T11:41:25.949Z,-12.11
2023-02-19T11:45:03.958Z,-12.23
2023-02-19T11:48:43.869Z,-12.54
2023-02-19T11:52:16.814Z,-12.74
2023-02-19T11:55:20.802Z,-12.85
2023-02-19T11:58:48.365Z,-12.89
2023-02-19T12:01:58.472Z,-13.02
2023-02-19T12:05:27.763Z,-12.97
2023-02-19T12:08:46.315Z,-13.24
2023-02-19T12:12:11.746Z,-13.42
2023-02-19T12:15:20.979Z,-13.50
2023-02-19T12:18:40.410Z,-13.64
2023-02-19T12:22:12.543Z,-13.70
2023-02-19T12:25:34.042Z,-13.75
2023-02-19T12:29:01.354Z,-13.99
2023-02-19T12:32:31.677Z,-14.03
2023-02-19T12:35:46.579Z,-14.15
2023-02-19T12:39:24.609Z,-14.27
2023-02-19T12:43:10.846Z,-14.46
2023-02-19T12:46:27.012Z,-14.36
2023-02-19T12:49:38.333Z,-14.52
2023-02-19T12:52:47.305Z,-14.87
2023-02-19T12:55:53.275Z,-14.93
2023-02-19T12:59:05.120Z,-14.51
2023-02-19T13:02:15.367Z,-14.90
2023-02-19T13:05:49.438Z,-15.02
2023-02-19T13:09:21.937Z,-15.19
2023-02-19T13:12:34.169Z,-15.19
2023-02-19T13:15:45.076Z,-14.90
2023-02-19T13:19:00.978Z,-14.89
2023-02-19T13:22:37.303Z,-15.04
2023-02-19T13:26:23.230Z,-15.26
2023-02-19T13:29:33.660Z,-15.49
2023-02-19T13:33:11.564Z,-15.28
2023-02-19T13:36:30.430Z,-15.44
2023-02-19T13:39:35.704Z,-15.16
2023-02-19T13:42:40.343Z,-15.76
2023-02-19T13:45:48.340Z,-15.96
2023-02-19T13:49:16.423Z,-16.03
2023-02-19T13:52:34.668Z,-15.93
2023-02-19T13:55:47.615Z,-15.68
2023-02-19T13:58:58.844Z,-16.13
2023-02-19T14:02:04.174Z,-16.02
2023-02-19T14:05:12.510Z,-15.86
2023-02-19T14:08:58.934Z,-15.74
2023-02-19T14:12:16.427Z,-15.93
2023-02-19T14:15:50.151Z,-16.57
2023-02-19T14:18:56.905Z,-16.95
2023-02-19T14:22:01.437Z,-16.82
2023-02-19T14:25:20.132Z,-16.89
2023-02-19T14:28:37.077Z,-16.66
2023-02-19T14:31:45.766Z,-16.33
2023-02-19T14:34:50.354Z,-17.07
2023-02-19T14:37:57.256Z,-17.08
2023-02-19T14:41:02.667Z,-17.38
2023-02-19T14:44:15.794Z,-17.31
2023-02-19T14:47:23.662Z,-17.11
2023-02-19T14:50:32.806Z,-16.99
2023-02-19T14:53:41.668Z,-16.85
2023-02-19T14:56:55.621Z,-16.95
2023-02-19T15:00:02.462Z,-16.94
2023-02-19T15:03:33.262Z,-17.09
2023-02-19T15:06:37.866Z,-17.33
2023-02-19T15:09:51.849Z,-17.91
2023-02-19T15:13:02.615Z,-17.83
2023-02-19T15:16:07.496Z,-17.94
2023-02-19T15:19:15.708Z,-18.01
2023-02-19T15:22:24.264Z,-17.86
2023-02-19T15:25:37.873Z,-17.86
2023-02-19T15:28:42.316Z,-18.00
2023-02-19T15:31:58.574Z,-17.80
2023-02-19T15:35:05.381Z,-17.87
2023-02-19T15:38:13.498Z,-17.98
2023-02-19T15:41:26.660Z,-17.68
2023-02-19T15:44:53.336Z,-17.73
2023-02-19T15:48:16.576Z,-18.05
2023-02-19T15:51:33.008Z,-17.81
2023-02-19T15:55:30.040Z,-18.27
2023-02-19T15:58:46.784Z,-18.71
2023-02-19T16:01:51.398Z,-18.40
2023-02-19T16:04:55.496Z,-18.15
2023-02-19T16:08:17.919Z,-18.65
2023-02-19T16:11:25.136Z,-18.76
2023-02-19T16:14:38.836Z,-18.65
2023-02-19T16:17:45.734Z,-18.89
2023-02-19T16:20:50.728Z,-18.96
2023-02-19T16:24:05.024Z,-19.17
2023-02-19T16:27:10.352Z,-19.25
2023-02-19T16:30:18.449Z,-19.13
2023-02-19T16:33:38.705Z,-19.38
2023-02-19T16:36:44.422Z,-19.05
2023-02-19T16:39:48.760Z,-19.87
2023-02-19T16:43:15.997Z,-19.65
2023-02-19T16:46:20.920Z,-19.41
2023-02-19T16:49:26.027Z,-19.84
2023-02-19T16:52:30.939Z,-19.82
2023-02-19T16:55:35.780Z,-19.86
2023-02-19T16:58:40.150Z,-19.54
2023-02-19T17:01:44.781Z,-19.31
2023-02-19T17:04:50.496Z,-19.82
2023-02-19T17:07:54.754Z,-19.51
2023-02-19T17:11:00.086Z,-19.58
2023-02-19T17:14:04.816Z,-19.51
2023-02-19T17:17:09.297Z,-19.14
2023-02-19T17:20:30.567Z,-19.47
2023-02-19T17:23:35.078Z,-19.89
2023-02-19T17:26:39.529Z,-20.36
2023-02-19T17:29:44.011Z,-20.19
2023-02-19T17:32:48.205Z,-20.00
2023-02-19T17:35:52.598Z,-19.94
2023-02-19T17:38:56.718Z,-20.25
2023-02-19T17:42:01.305Z,-20.65
2023-02-19T17:45:06.370Z,-20.55
2023-02-19T17:48:14.327Z,-20.57
2023-02-19T17:51:18.780Z,-20.47
2023-02-19T17:54:23.133Z,-20.95
2023-02-19T17:57:33.553Z,-20.90
2023-02-19T18:00:38.073Z,-20.52
2023-02-19T18:03:42.789Z,-20.76
2023-02-19T18:06:48.983Z,-20.46
2023-02-19T18:09:53.487Z,-20.75
2023-02-19T18:12:58.287Z,-20.99
2023-02-19T18:16:03.001Z,-20.63
2023-02-19T18:19:08.988Z,-20.89
2023-02-19T18:22:13.342Z,-21.15
2023-02-19T18:25:19.489Z,-21.26
2023-02-19T18:28:23.966Z,-21.36
2023-02-19T18:31:28.409Z,-20.76
2023-02-19T18:34:32.649Z,-20.95
2023-02-19T18:37:37.342Z,-20.68
2023-02-19T18:40:41.758Z,-21.61
2023-02-19T18:43:46.276Z,-21.19
2023-02-19T18:46:51.598Z,-20.90
2023-02-19T18:49:57.546Z,-20.93
2023-02-19T18:53:01.853Z,-20.83
2023-02-19T18:56:06.369Z,-21.00
2023-02-19T18:59:11.264Z,-21.44
2023-02-19T19:02:15.877Z,-21.29
2023-02-19T19:05:25.086Z,-20.86
2023-02-19T19:08:30.755Z,-21.09
2023-02-19T19:11:36.345Z,-21.61
2023-02-19T19:14:40.423Z,-21.49
2023-02-19T19:17:44.439Z,-21.34
2023-02-19T19:20:48.948Z,-21.70
2023-02-19T19:23:53.642Z,-21.97
2023-02-19T19:26:59.545Z,-21.77
2023-02-19T19:30:06.163Z,-22.25
2023-02-19T19:33:12.099Z,-22.42
2023-02-19T19:36:24.425Z,-21.62
2023-02-19T19:39:28.723Z,-21.84
2023-02-19T19:42:33.332Z,-22.45
2023-02-19T19:45:37.906Z,-22.09
2023-02-19T19:48:42.230Z,-21.99
2023-02-19T19:51:47.854Z,-22.16
2023-02-19T19:54:54.917Z,-22.29
2023-02-19T19:58:01.258Z,-22.43
2023-02-19T20:01:06.889Z,-22.24
2023-02-19T20:04:11.380Z,-22.32
2023-02-19T20:07:17.671Z,-22.42
2023-02-19T20:10:22.705Z,-22.50
2023-02-19T20:13:29.594Z,-22.37
2023-02-19T20:16:34.588Z,-22.53
2023-02-19T20:19:38.627Z,-22.31
2023-02-19T20:22:43.129Z,-22.60
2023-02-19T20:25:47.632Z,-22.51
2023-02-19T20:28:51.977Z,-22.22
2023-02-19T20:32:00.042Z,-22.50
2023-02-19T20:35:04.619Z,-22.52
2023-02-19T20:38:08.971Z,-22.34
2023-02-19T20:41:15.171Z,-22.22
2023-02-19T20:44:20.418Z,-22.17
2023-02-19T20:47:24.404Z,-22.44
2023-02-19T20:50:28.797Z,-22.17
2023-02-19T20:53:33.394Z,-22.35
2023-02-19T20:56:38.170Z,-22.32
2023-02-19T20:59:44.887Z,-22.42
2023-02-19T21:02:49.438Z,-22.72
2023-02-19T21:05:53.873Z,-22.80
2023-02-19T21:08:58.229Z,-22.94
2023-02-19T21:12:02.946Z,-22.88
2023-02-19T21:15:07.604Z,-22.48
2023-02-19T21:18:12.027Z,-22.20
2023-02-19T21:21:19.401Z,-22.28
2023-02-19T21:24:23.824Z,-22.96
2023-02-19T21:27:28.194Z,-23.37
2023-02-19T21:30:33.021Z,-23.35
2023-02-19T21:33:37.672Z,-23.27
2023-02-19T21:36:42.148Z,-23.63
2023-02-19T21:39:47.824Z,-23.62
2023-02-19T21:42:52.212Z,-23.26
2023-02-19T21:45:56.626Z,-23.59
2023-02-19T21:49:01.785Z,-23.69
2023-02-19T21:52:06.504Z,-23.58
2023-02-19T21:55:10.912Z,-23.77
2023-02-19T21:58:16.536Z,-23.58
2023-02-19T22:01:22.827Z,-23.56
2023-02-19T22:04:28.222Z,-23.24
2023-02-19T22:07:32.673Z,-23.01
2023-02-19T22:10:37.295Z,-23.67
2023-02-19T22:13:41.793Z,-23.57
2023-02-19T22:16:46.339Z,-23.54
2023-02-19T22:19:50.873Z,-23.54
2023-02-19T22:22:55.130Z,-23.86
2023-02-19T22:25:59.837Z,-23.38
2023-02-19T22:29:07.763Z,-23.43
2023-02-19T22:32:12.238Z,-23.40
2023-02-19T22:35:16.977Z,-23.55
2023-02-19T22:38:21.380Z,-23.27
2023-02-19T22:41:26.083Z,-22.81
2023-02-19T22:44:30.673Z,-23.02
2023-02-19T22:47:35.225Z,-22.68
2023-02-19T22:50:39.524Z,-22.62
2023-02-19T22:53:52.468Z,-22.51
2023-02-19T22:56:57.300Z,-22.55
2023-02-19T23:00:01.826Z,-22.40
2023-02-19T23:03:07.335Z,-22.03
2023-02-19T23:06:12.033Z,-21.41
2023-02-19T23:09:20.646Z,-21.18
2023-02-19T23:12:24.770Z,-20.43
2023-02-19T23:15:29.256Z,-20.34
2023-02-19T23:18:33.699Z,-19.84
2023-02-19T23:21:42.751Z,-20.16
2023-02-19T23:24:46.897Z,-18.95
2023-02-19T23:27:51.357Z,-18.33
2023-02-19T23:30:55.773Z,-18.44
2023-02-19T23:33:59.915Z,-18.22
2023-02-19T23:37:03.899Z,-17.64
2023-02-19T23:40:08.805Z,-17.43
2023-02-19T23:43:15.061Z,-17.23
2023-02-19T23:46:20.280Z,-17.93
2023-02-19T23:49:25.243Z,-18.77
2023-02-19T23:52:33.974Z,-19.49
2023-02-19T23:55:38.480Z,-19.00
2023-02-19T23:58:44.751Z,-18.87
